createdAt,value
2019-06-10T00:00:25.125Z,101415.23
2019-06-10T00:02:55.661Z,101410.84
2019-06-10T00:05:26.228Z,101415.09
2019-06-10T00:07:57.775Z,101402.95
2019-06-10T00:10:28.467Z,101402.34
2019-06-10T00:13:02.129Z,101394.22
2019-06-10T00:15:31.488Z,101385.42
2019-06-10T00:18:26.482Z,101383.42
2019-06-10T00:20:34.350Z,101373.97
2019-06-10T00:23:05.654Z,101371.45
2019-06-10T00:25:37.242Z,101371.44
2019-06-10T00:28:08.858Z,101365.78
2019-06-10T00:30:41.148Z,101356.47
2019-06-10T00:33:12.729Z,101369.78
2019-06-10T00:35:43.386Z,101362.92
2019-06-10T00:38:14.577Z,101360.36
2019-06-10T00:40:45.149Z,101349.31
2019-06-10T00:43:15.716Z,101346.08
2019-06-10T00:45:46.286Z,101339.38
2019-06-10T00:48:25.086Z,101351.03
2019-06-10T00:50:51.621Z,101350.27
2019-06-10T00:53:21.774Z,101343.08
2019-06-10T00:55:52.417Z,101342.13
2019-06-10T00:58:22.879Z,101346.56
2019-06-10T01:00:53.486Z,101343.24
2019-06-10T01:03:24.020Z,101349.94
2019-06-10T01:05:54.563Z,101343.29
2019-06-10T01:08:25.085Z,101346.27
2019-06-10T01:10:55.597Z,101342.16
2019-06-10T01:13:26.179Z,101335.91
2019-06-10T01:15:56.718Z,101335.16
2019-06-10T01:18:35.679Z,101329.73
2019-06-10T01:21:01.790Z,101330.83
2019-06-10T01:23:31.773Z,101321.50
2019-06-10T01:26:02.362Z,101318.50
2019-06-10T01:28:32.774Z,101316.30
2019-06-10T01:31:03.488Z,101315.84
2019-06-10T01:33:34.067Z,101301.86
2019-06-10T01:36:05.511Z,101309.56
2019-06-10T01:38:36.311Z,101308.33
2019-06-10T01:41:08.058Z,101299.81
2019-06-10T01:43:40.755Z,101305.66
2019-06-10T01:46:14.084Z,101294.58
2019-06-10T01:48:47.927Z,101296.86
2019-06-10T01:51:21.421Z,101288.67
2019-06-10T01:53:51.841Z,101274.80
2019-06-10T01:56:22.394Z,101267.76
2019-06-10T01:58:52.933Z,101271.46
2019-06-10T02:01:38.531Z,101257.81
2019-06-10T02:04:11.585Z,101257.77
2019-06-10T02:06:41.605Z,101250.73
2019-06-10T02:09:15.072Z,101243.75
2019-06-10T02:11:44.438Z,101242.73
2019-06-10T02:14:17.604Z,101240.08
2019-06-10T02:16:47.169Z,101241.22
2019-06-10T02:19:18.694Z,101233.95
2019-06-10T02:21:51.052Z,101235.28
2019-06-10T02:24:23.314Z,101237.32
2019-06-10T02:26:53.830Z,101226.43
2019-06-10T02:29:24.341Z,101220.64
2019-06-10T02:31:54.815Z,101210.99
2019-06-10T02:34:27.467Z,101209.66
2019-06-10T02:36:57.634Z,101208.94
2019-06-10T02:39:35.040Z,101202.28
2019-06-10T02:42:05.622Z,101200.43
2019-06-10T02:44:37.512Z,101207.75
2019-06-10T02:47:08.496Z,101200.05
2019-06-10T02:49:52.837Z,101195.30
2019-06-10T02:52:24.650Z,101200.86
2019-06-10T02:54:53.742Z,101184.28
2019-06-10T02:57:30.541Z,101186.88
2019-06-10T02:59:56.627Z,101186.22
2019-06-10T03:02:31.542Z,101177.91
2019-06-10T03:04:59.360Z,101181.56
2019-06-10T03:07:32.603Z,101180.47
2019-06-10T03:10:04.611Z,101178.47
2019-06-10T03:12:34.564Z,101177.75
2019-06-10T03:15:05.773Z,101177.24
2019-06-10T03:17:36.293Z,101169.53
2019-06-10T03:20:07.027Z,101178.28
2019-06-10T03:22:37.514Z,101178.28
2019-06-10T03:25:08.086Z,101175.15
2019-06-10T03:27:38.648Z,101175.70
2019-06-10T03:30:16.935Z,101166.39
2019-06-10T03:32:46.827Z,101171.06
2019-06-10T03:35:14.234Z,101168.40
2019-06-10T03:37:44.740Z,101167.53
2019-06-10T03:40:16.468Z,101158.03
2019-06-10T03:42:47.488Z,101154.52
2019-06-10T03:45:19.540Z,101146.73
2019-06-10T03:47:50.059Z,101155.27
2019-06-10T03:50:23.942Z,101156.33
2019-06-10T03:52:52.959Z,101149.44
2019-06-10T03:55:26.325Z,101150.66
2019-06-10T03:57:55.812Z,101149.15
2019-06-10T04:00:27.599Z,101145.40
2019-06-10T04:02:58.762Z,101147.24
2019-06-10T04:05:29.298Z,101147.44
2019-06-10T04:08:02.010Z,101144.77
2019-06-10T04:10:32.459Z,101143.86
2019-06-10T04:13:03.056Z,101140.59
2019-06-10T04:15:33.573Z,101143.13
2019-06-10T04:18:04.190Z,101142.91
2019-06-10T04:20:34.750Z,101141.20
2019-06-10T04:23:05.361Z,101134.20
2019-06-10T04:25:39.834Z,101134.95
2019-06-10T04:28:12.367Z,101136.57
2019-06-10T04:30:43.283Z,101140.95
2019-06-10T04:33:14.011Z,101137.91
2019-06-10T04:35:44.491Z,101131.20
2019-06-10T04:38:14.949Z,101128.01
2019-06-10T04:40:45.546Z,101126.98
2019-06-10T04:43:15.992Z,101130.21
2019-06-10T04:45:46.453Z,101134.38
2019-06-10T04:48:16.973Z,101126.73
2019-06-10T04:50:47.480Z,101119.75
2019-06-10T04:53:18.698Z,101112.78
2019-06-10T04:55:49.243Z,101120.86
2019-06-10T04:58:21.506Z,101124.66
2019-06-10T05:00:52.330Z,101128.67
2019-06-10T05:03:23.826Z,101127.85
2019-06-10T05:05:55.199Z,101118.08
2019-06-10T05:08:26.889Z,101110.66
2019-06-10T05:10:57.939Z,101105.81
2019-06-10T05:13:29.893Z,101108.86
2019-06-10T05:16:03.323Z,101112.66
2019-06-10T05:18:33.204Z,101131.77
2019-06-10T05:21:04.067Z,101131.38
2019-06-10T05:23:34.540Z,101138.03
2019-06-10T05:26:05.038Z,101142.26
2019-06-10T05:28:35.526Z,101137.79
2019-06-10T05:31:06.016Z,101148.05
2019-06-10T05:33:36.558Z,101144.73
2019-06-10T05:36:07.035Z,101133.98
2019-06-10T05:38:37.578Z,101123.59
2019-06-10T05:41:08.072Z,101118.70
2019-06-10T05:43:38.642Z,101116.31
2019-06-10T05:46:09.135Z,101111.77
2019-06-10T05:48:39.680Z,101109.15
2019-06-10T05:51:12.226Z,101098.55
2019-06-10T05:53:45.763Z,101095.27
2019-06-10T05:56:14.668Z,101093.23
2019-06-10T05:58:45.074Z,101085.06
2019-06-10T06:01:15.576Z,101089.00
2019-06-10T06:03:46.082Z,101087.33
2019-06-10T06:06:16.590Z,101086.34
2019-06-10T06:08:47.174Z,101083.63
2019-06-10T06:11:17.639Z,101084.86
2019-06-10T06:13:48.121Z,101083.68
2019-06-10T06:16:18.592Z,101072.90
2019-06-10T06:18:49.072Z,101070.77
2019-06-10T06:21:26.719Z,101067.81
2019-06-10T06:23:52.862Z,101066.20
2019-06-10T06:26:23.978Z,101064.77
2019-06-10T06:28:54.637Z,101064.36
2019-06-10T06:31:26.161Z,101064.11
2019-06-10T06:33:56.930Z,101067.01
2019-06-10T06:36:28.582Z,101065.17
2019-06-10T06:38:59.310Z,101064.54
2019-06-10T06:41:29.843Z,101059.83
2019-06-10T06:44:02.335Z,101056.64
2019-06-10T06:46:36.603Z,101052.09
2019-06-10T06:49:04.917Z,101054.23
2019-06-10T06:51:47.562Z,101054.47
2019-06-10T06:54:07.717Z,101056.73
2019-06-10T06:56:39.270Z,101052.22
2019-06-10T06:59:12.966Z,101057.17
2019-06-10T07:01:44.225Z,101060.72
2019-06-10T07:04:14.936Z,101051.38
2019-06-10T07:06:45.450Z,101054.59
2019-06-10T07:09:17.448Z,101050.83
2019-06-10T07:11:49.618Z,101055.44
2019-06-10T07:14:23.759Z,101051.41
2019-06-10T07:16:53.591Z,101051.56
2019-06-10T07:19:24.083Z,101051.08
2019-06-10T07:22:08.320Z,101049.45
2019-06-10T07:24:26.846Z,101057.25
2019-06-10T07:26:57.352Z,101047.20
2019-06-10T07:29:27.851Z,101047.94
2019-06-10T07:31:58.322Z,101043.33
2019-06-10T07:34:33.890Z,101032.69
2019-06-10T07:37:03.111Z,101036.66
2019-06-10T07:39:35.237Z,101045.86
2019-06-10T07:42:05.796Z,101037.37
2019-06-10T07:44:37.537Z,101037.76
2019-06-10T07:47:08.060Z,101039.95
2019-06-10T07:49:39.279Z,101040.80
2019-06-10T07:52:16.538Z,101047.64
2019-06-10T07:54:44.024Z,101043.48
2019-06-10T07:57:14.433Z,101040.57
2019-06-10T07:59:45.983Z,101030.35
2019-06-10T08:02:16.704Z,101029.39
2019-06-10T08:04:47.210Z,101022.86
2019-06-10T08:07:17.701Z,101016.89
2019-06-10T08:09:48.251Z,101027.22
2019-06-10T08:12:18.785Z,101029.56
2019-06-10T08:14:49.282Z,101029.02
2019-06-10T08:17:22.258Z,101017.88
2019-06-10T08:19:54.250Z,101010.88
2019-06-10T08:22:37.222Z,101012.55
2019-06-10T08:24:56.429Z,101014.41
2019-06-10T08:27:26.948Z,101015.42
2019-06-10T08:30:14.344Z,101011.29
2019-06-10T08:32:29.699Z,101010.25
2019-06-10T08:35:02.612Z,101013.20
2019-06-10T08:37:33.183Z,101008.25
2019-06-10T08:40:05.873Z,101006.87
2019-06-10T08:42:36.562Z,101013.89
2019-06-10T08:45:07.487Z,101011.73
2019-06-10T08:47:39.113Z,101017.28
2019-06-10T08:50:09.825Z,101017.62
2019-06-10T08:52:56.046Z,101021.45
2019-06-10T08:55:12.855Z,101017.08
2019-06-10T08:57:47.055Z,101019.95
2019-06-10T09:00:18.579Z,101016.91
2019-06-10T09:02:50.797Z,101010.25
2019-06-10T09:05:23.250Z,101014.23
2019-06-10T09:07:54.597Z,101020.75
2019-06-10T09:10:25.185Z,101012.91
2019-06-10T09:12:55.704Z,101011.19
2019-06-10T09:15:27.008Z,101011.16
2019-06-10T09:17:57.541Z,101005.84
2019-06-10T09:20:28.532Z,101008.81
2019-06-10T09:23:15.158Z,101011.22
2019-06-10T09:25:33.344Z,101003.02
2019-06-10T09:28:03.523Z,101002.73
2019-06-10T09:30:34.005Z,100990.28
2019-06-10T09:33:04.926Z,100996.45
2019-06-10T09:35:35.526Z,100998.61
2019-06-10T09:38:06.008Z,100998.49
2019-06-10T09:41:00.299Z,100979.84
2019-06-10T09:43:24.922Z,100970.34
2019-06-10T09:45:56.640Z,100957.30
2019-06-10T09:48:27.412Z,100957.99
2019-06-10T09:50:59.250Z,100946.98
2019-06-10T09:53:38.909Z,100942.30
2019-06-10T09:56:04.145Z,100942.25
2019-06-10T09:58:34.473Z,100942.26
2019-06-10T10:01:05.337Z,100943.25
2019-06-10T10:03:35.837Z,100944.66
2019-06-10T10:06:14.521Z,100945.67
2019-06-10T10:08:39.236Z,100945.80
2019-06-10T10:11:12.354Z,100944.83
2019-06-10T10:13:45.262Z,100953.34
2019-06-10T10:16:14.349Z,100939.97
2019-06-10T10:18:48.939Z,100943.94
2019-06-10T10:21:17.232Z,100940.59
2019-06-10T10:24:00.580Z,100948.45
2019-06-10T10:26:20.746Z,100946.20
2019-06-10T10:28:53.263Z,100947.45
2019-06-10T10:31:24.118Z,100943.67
2019-06-10T10:33:54.766Z,100946.72
2019-06-10T10:36:25.301Z,100943.84
2019-06-10T10:38:55.826Z,100948.44
2019-06-10T10:41:26.311Z,100949.81
2019-06-10T10:43:58.477Z,100953.28
2019-06-10T10:46:29.135Z,100944.16
2019-06-10T10:48:59.632Z,100951.84
2019-06-10T10:51:32.522Z,100957.21
2019-06-10T10:54:20.869Z,100953.27
2019-06-10T10:56:34.870Z,100945.09
2019-06-10T10:59:05.473Z,100945.77
2019-06-10T11:01:36.028Z,100935.30
2019-06-10T11:04:07.012Z,100937.16
2019-06-10T11:06:37.500Z,100919.38
2019-06-10T11:09:13.007Z,100914.72
2019-06-10T11:11:44.541Z,100910.41
2019-06-10T11:14:16.539Z,100907.47
2019-06-10T11:16:47.206Z,100904.73
2019-06-10T11:19:17.726Z,100901.53
2019-06-10T11:21:49.477Z,100901.54
2019-06-10T11:24:33.631Z,100892.42
2019-06-10T11:26:55.167Z,100898.23
2019-06-10T11:29:24.690Z,100891.14
2019-06-10T11:31:57.397Z,100888.70
2019-06-10T11:34:27.395Z,100884.55
2019-06-10T11:36:58.342Z,100881.37
2019-06-10T11:39:29.028Z,100882.98
2019-06-10T11:42:02.224Z,100877.80
2019-06-10T11:44:33.863Z,100876.80
2019-06-10T11:47:04.550Z,100865.94
2019-06-10T11:49:35.027Z,100862.67
2019-06-10T11:52:05.557Z,100862.38
2019-06-10T11:54:50.623Z,100859.23
2019-06-10T11:57:08.447Z,100861.38
2019-06-10T11:59:38.974Z,100861.45
2019-06-10T12:02:09.534Z,100871.35
2019-06-10T12:04:40.100Z,100855.72
2019-06-10T12:07:12.739Z,100861.00
2019-06-10T12:09:42.835Z,100855.64
2019-06-10T12:12:13.615Z,100851.71
2019-06-10T12:14:44.666Z,100848.47
2019-06-10T12:17:30.789Z,100839.37
2019-06-10T12:19:47.378Z,100847.55
2019-06-10T12:22:17.856Z,100862.30
2019-06-10T12:24:50.222Z,100859.41
2019-06-10T12:27:20.578Z,100860.86
2019-06-10T12:29:54.082Z,100866.77
2019-06-10T12:32:23.408Z,100861.03
2019-06-10T12:34:54.577Z,100863.27
2019-06-10T12:37:26.102Z,100864.16
2019-06-10T12:39:59.376Z,100867.20
2019-06-10T12:42:28.757Z,100855.69
2019-06-10T12:45:00.684Z,100855.48
2019-06-10T12:47:33.238Z,100845.22
2019-06-10T12:50:05.389Z,100857.13
2019-06-10T12:52:36.082Z,100855.66
2019-06-10T12:55:07.492Z,100851.69
2019-06-10T12:57:38.011Z,100844.06
2019-06-10T13:00:20.562Z,100840.77
2019-06-10T13:02:43.123Z,100844.28
2019-06-10T13:05:14.146Z,100844.83
2019-06-10T13:07:47.717Z,100845.34
2019-06-10T13:10:37.832Z,100846.53
2019-06-10T13:13:09.339Z,100850.44
2019-06-10T13:15:38.954Z,100856.31
2019-06-10T13:18:13.542Z,100853.41
2019-06-10T13:20:39.664Z,100855.49
2019-06-10T13:23:20.467Z,100841.77
2019-06-10T13:25:51.244Z,100844.53
2019-06-10T13:28:11.622Z,100841.09
2019-06-10T13:30:42.843Z,100846.15
2019-06-10T13:33:14.700Z,100835.20
2019-06-10T13:35:44.334Z,100835.84
2019-06-10T13:38:14.008Z,100834.40
2019-06-10T13:40:44.156Z,100837.77
2019-06-10T13:43:13.628Z,100828.78
2019-06-10T13:45:43.186Z,100815.65
2019-06-10T13:48:14.963Z,100805.30
2019-06-10T13:50:43.952Z,100798.23
2019-06-10T13:53:13.713Z,100809.45
2019-06-10T13:55:43.693Z,100806.14
2019-06-10T13:58:14.717Z,100790.39
2019-06-10T14:00:46.734Z,100792.53
2019-06-10T14:03:16.229Z,100791.77
2019-06-10T14:05:46.031Z,100791.56
2019-06-10T14:08:15.602Z,100778.63
2019-06-10T14:10:45.097Z,100791.58
2019-06-10T14:13:15.668Z,100781.02
2019-06-10T14:15:45.581Z,100776.91
2019-06-10T14:18:15.399Z,100768.78
2019-06-10T14:20:45.282Z,100766.13
2019-06-10T14:23:17.435Z,100763.73
2019-06-10T14:25:45.985Z,100766.30
2019-06-10T14:28:34.942Z,100759.62
2019-06-10T14:30:46.737Z,100772.53
2019-06-10T14:33:16.737Z,100761.92
2019-06-10T14:35:46.436Z,100759.51
2019-06-10T14:38:15.977Z,100744.12
2019-06-10T14:40:45.517Z,100734.30
2019-06-10T14:43:16.325Z,100735.52
2019-06-10T14:45:45.869Z,100729.13
2019-06-10T14:48:17.240Z,100735.95
2019-06-10T14:50:46.571Z,100731.17
2019-06-10T14:53:16.920Z,100735.48
2019-06-10T14:55:46.539Z,100725.82
2019-06-10T14:58:18.457Z,100735.58
2019-06-10T15:00:47.236Z,100729.81
2019-06-10T15:03:19.875Z,100731.86
2019-06-10T15:05:47.939Z,100714.88
2019-06-10T15:08:17.400Z,100713.23
2019-06-10T15:10:46.884Z,100717.31
2019-06-10T15:13:16.446Z,100711.95
2019-06-10T15:15:46.533Z,100720.00
2019-06-10T15:18:18.113Z,100713.61
2019-06-10T15:20:47.337Z,100718.53
2019-06-10T15:23:18.712Z,100719.39
2019-06-10T15:25:52.508Z,100722.45
2019-06-10T15:28:20.469Z,100719.45
2019-06-10T15:30:52.499Z,100707.43
2019-06-10T15:33:23.751Z,100698.66
2019-06-10T15:35:53.535Z,100704.66
2019-06-10T15:38:23.542Z,100702.13
2019-06-10T15:40:53.570Z,100699.73
2019-06-10T15:43:23.688Z,100700.81
2019-06-10T15:45:53.354Z,100699.53
2019-06-10T15:48:25.298Z,100705.98
2019-06-10T15:50:54.111Z,100701.84
2019-06-10T15:53:25.704Z,100701.60
2019-06-10T15:56:13.355Z,100699.88
2019-06-10T15:58:26.210Z,100705.11
2019-06-10T16:00:55.713Z,100711.66
2019-06-10T16:03:25.839Z,100715.31
2019-06-10T16:05:55.405Z,100708.06
2019-06-10T16:08:24.888Z,100703.92
2019-06-10T16:10:54.348Z,100712.99
2019-06-10T16:13:25.823Z,100713.16
2019-06-10T16:15:55.064Z,100717.28
2019-06-10T16:18:27.882Z,100721.27
2019-06-10T16:20:55.898Z,100721.92
2019-06-10T16:23:26.747Z,100723.28
2019-06-10T16:25:56.416Z,100716.84
2019-06-10T16:28:26.547Z,100726.97
2019-06-10T16:30:56.149Z,100715.90
2019-06-10T16:33:27.660Z,100715.63
2019-06-10T16:35:56.925Z,100710.52
2019-06-10T16:38:27.274Z,100721.97
2019-06-10T16:40:56.818Z,100710.25
2019-06-10T16:43:27.667Z,100710.05
2019-06-10T16:45:57.314Z,100712.08
2019-06-10T16:48:26.777Z,100714.86
2019-06-10T16:50:56.371Z,100710.31
2019-06-10T16:53:28.917Z,100721.68
2019-06-10T16:55:57.077Z,100710.89
2019-06-10T16:58:28.434Z,100713.27
2019-06-10T17:00:57.867Z,100715.42
2019-06-10T17:03:29.191Z,100713.61
2019-06-10T17:05:58.591Z,100707.67
2019-06-10T17:08:28.585Z,100711.59
2019-06-10T17:10:58.263Z,100705.88
2019-06-10T17:13:30.172Z,100704.46
2019-06-10T17:15:59.766Z,100694.11
2019-06-10T17:18:30.109Z,100695.05
2019-06-10T17:21:02.713Z,100705.27
2019-06-10T17:23:36.007Z,100704.23
2019-06-10T17:26:02.271Z,100707.34
2019-06-10T17:28:36.315Z,100705.09
2019-06-10T17:31:03.913Z,100695.41
2019-06-10T17:33:35.784Z,100703.11
2019-06-10T17:36:04.942Z,100701.39
2019-06-10T17:38:34.421Z,100706.95
2019-06-10T17:41:03.902Z,100709.07
2019-06-10T17:43:34.431Z,100694.20
2019-06-10T17:46:04.129Z,100694.32
2019-06-10T17:48:33.969Z,100690.70
2019-06-10T17:51:03.579Z,100692.30
2019-06-10T17:53:34.972Z,100684.63
2019-06-10T17:56:04.225Z,100679.76
2019-06-10T17:58:50.362Z,100673.59
2019-06-10T18:01:04.928Z,100665.80
2019-06-10T18:03:35.777Z,100664.21
2019-06-10T18:06:05.630Z,100665.17
2019-06-10T18:08:36.657Z,100661.22
2019-06-10T18:11:06.220Z,100652.58
2019-06-10T18:13:36.133Z,100663.75
2019-06-10T18:16:05.766Z,100665.82
2019-06-10T18:18:37.119Z,100673.86
2019-06-10T18:21:06.552Z,100666.64
2019-06-10T18:23:36.069Z,100672.79
2019-06-10T18:26:05.530Z,100676.59
2019-06-10T18:28:56.744Z,100687.66
2019-06-10T18:31:06.267Z,100684.16
2019-06-10T18:33:37.844Z,100677.59
2019-06-10T18:36:06.987Z,100675.31
2019-06-10T18:38:37.316Z,100675.20
2019-06-10T18:41:06.903Z,100674.75
2019-06-10T18:43:36.971Z,100672.53
2019-06-10T18:46:06.495Z,100674.98
2019-06-10T18:48:38.071Z,100669.31
2019-06-10T18:51:07.371Z,100667.04
2019-06-10T18:53:36.815Z,100667.40
2019-06-10T18:56:06.292Z,100669.34
2019-06-10T18:58:37.428Z,100663.16
2019-06-10T19:01:08.114Z,100660.95
2019-06-10T19:03:38.295Z,100662.73
2019-06-10T19:06:09.059Z,100657.27
2019-06-10T19:08:39.287Z,100658.30
2019-06-10T19:11:09.748Z,100658.83
2019-06-10T19:13:40.987Z,100649.08
2019-06-10T19:16:12.761Z,100646.58
2019-06-10T19:18:43.155Z,100647.36
2019-06-10T19:21:13.292Z,100643.84
2019-06-10T19:23:43.903Z,100642.64
2019-06-10T19:26:13.754Z,100639.41
2019-06-10T19:28:45.219Z,100630.75
2019-06-10T19:31:14.592Z,100625.73
2019-06-10T19:33:45.144Z,100620.27
2019-06-10T19:36:15.031Z,100623.82
2019-06-10T19:38:44.584Z,100620.22
2019-06-10T19:41:14.004Z,100624.45
2019-06-10T19:43:45.381Z,100632.50
2019-06-10T19:46:14.781Z,100628.73
2019-06-10T19:48:55.641Z,100623.15
2019-06-10T19:51:15.600Z,100602.09
2019-06-10T19:53:45.258Z,100606.66
2019-06-10T19:56:14.579Z,100606.52
2019-06-10T19:58:46.221Z,100612.59
2019-06-10T20:01:15.293Z,100608.23
2019-06-10T20:03:46.797Z,100606.58
2019-06-10T20:06:16.011Z,100603.41
2019-06-10T20:08:46.222Z,100593.95
2019-06-10T20:11:15.764Z,100595.31
2019-06-10T20:13:46.757Z,100588.00
2019-06-10T20:16:16.445Z,100577.78
2019-06-10T20:18:48.198Z,100562.63
2019-06-10T20:21:17.255Z,100569.77
2019-06-10T20:23:47.877Z,100572.41
2019-06-10T20:26:18.249Z,100575.46
2019-06-10T20:28:52.233Z,100584.00
2019-06-10T20:31:19.012Z,100578.66
2019-06-10T20:33:48.491Z,100577.98
2019-06-10T20:36:23.377Z,100576.39
2019-06-10T20:38:50.642Z,100580.92
2019-06-10T20:41:20.494Z,100578.25
2019-06-10T20:43:52.618Z,100583.24
2019-06-10T20:46:23.519Z,100587.22
2019-06-10T20:48:54.626Z,100594.23
2019-06-10T20:51:26.880Z,100586.48
2019-06-10T20:53:54.911Z,100588.28
2019-06-10T20:56:24.356Z,100601.30
2019-06-10T20:58:53.867Z,100602.94
2019-06-10T21:01:25.307Z,100603.63
2019-06-10T21:03:54.649Z,100603.63
2019-06-10T21:06:25.065Z,100601.37
2019-06-10T21:08:55.881Z,100592.01
2019-06-10T21:11:25.384Z,100600.08
2019-06-10T21:13:55.649Z,100596.94
2019-06-10T21:16:25.467Z,100598.44
2019-06-10T21:18:55.696Z,100598.44
2019-06-10T21:21:25.529Z,100599.95
2019-06-10T21:23:54.965Z,100594.28
2019-06-10T21:26:24.358Z,100594.34
2019-06-10T21:28:55.088Z,100594.83
2019-06-10T21:31:24.710Z,100592.67
2019-06-10T21:33:55.677Z,100594.86
2019-06-10T21:36:25.542Z,100590.89
2019-06-10T21:38:55.892Z,100591.05
2019-06-10T21:41:25.560Z,100584.42
2019-06-10T21:43:59.102Z,100588.77
2019-06-10T21:46:26.196Z,100587.98
2019-06-10T21:48:56.095Z,100591.30
2019-06-10T21:51:25.759Z,100574.98
2019-06-10T21:53:55.417Z,100572.70
2019-06-10T21:56:24.912Z,100572.71
2019-06-10T21:58:55.691Z,100567.38
2019-06-10T22:01:25.365Z,100582.04
2019-06-10T22:04:00.736Z,100591.39
2019-06-10T22:06:26.142Z,100588.39
2019-06-10T22:08:56.618Z,100595.69
2019-06-10T22:11:26.272Z,100603.70
2019-06-10T22:13:56.377Z,100605.73
2019-06-10T22:16:25.890Z,100605.24
2019-06-10T22:18:55.370Z,100594.43
2019-06-10T22:21:24.938Z,100585.27
2019-06-10T22:23:56.931Z,100576.27
2019-06-10T22:26:25.569Z,100559.80
2019-06-10T22:28:57.521Z,100567.16
2019-06-10T22:31:26.671Z,100569.50
2019-06-10T22:33:57.610Z,100563.17
2019-06-10T22:36:27.287Z,100557.84
2019-06-10T22:38:58.958Z,100561.03
2019-06-10T22:41:27.949Z,100562.83
2019-06-10T22:43:57.692Z,100561.16
2019-06-10T22:46:27.317Z,100560.33
2019-06-10T22:48:57.422Z,100553.18
2019-06-10T22:51:26.892Z,100555.52
2019-06-10T22:53:58.435Z,100553.86
2019-06-10T22:56:27.581Z,100564.16
2019-06-10T22:58:57.420Z,100570.81
2019-06-10T23:01:34.175Z,100575.81
2019-06-10T23:03:58.164Z,100580.81
2019-06-10T23:06:27.658Z,100600.11
2019-06-10T23:08:58.158Z,100612.93
2019-06-10T23:11:28.288Z,100617.58
2019-06-10T23:13:58.442Z,100614.42
2019-06-10T23:16:29.135Z,100602.27
2019-06-10T23:18:59.866Z,100600.10
2019-06-10T23:21:29.503Z,100589.29
2019-06-10T23:24:00.141Z,100583.31
2019-06-10T23:26:30.275Z,100582.98
2019-06-10T23:29:00.241Z,100576.16
2019-06-10T23:31:29.704Z,100567.68
2019-06-10T23:33:59.151Z,100566.36
2019-06-10T23:36:28.744Z,100568.02
2019-06-10T23:38:58.921Z,100569.50
2019-06-10T23:41:28.412Z,100571.16
2019-06-10T23:43:59.142Z,100567.84
2019-06-10T23:46:28.666Z,100560.19
2019-06-10T23:48:58.047Z,100554.20
2019-06-10T23:51:27.532Z,100556.68
2019-06-10T23:53:58.871Z,100563.85
2019-06-10T23:56:28.135Z,100557.71
2019-06-10T23:58:58.602Z,100560.70
